createdAt,value
2018-10-06T00:01:07.683Z,100871.88
2018-10-06T00:03:35.808Z,100871.04
2018-10-06T00:06:03.932Z,100876.43
2018-10-06T00:08:32.040Z,100880.27
2018-10-06T00:11:00.159Z,100869.89
2018-10-06T00:13:34.571Z,100860.50
2018-10-06T00:16:02.718Z,100857.96
2018-10-06T00:18:30.825Z,100860.59
2018-10-06T00:20:58.940Z,100860.37
2018-10-06T00:23:27.045Z,100855.41
2018-10-06T00:25:55.154Z,100855.48
2018-10-06T00:28:23.268Z,100853.11
2018-10-06T00:30:51.347Z,100853.72
2018-10-06T00:33:19.468Z,100846.11
2018-10-06T00:35:47.621Z,100851.65
2018-10-06T00:38:15.751Z,100851.42
2018-10-06T00:40:43.845Z,100838.92
2018-10-06T00:43:11.973Z,100841.53
2018-10-06T00:45:40.108Z,100838.46
2018-10-06T00:48:08.266Z,100828.58
2018-10-06T00:50:36.398Z,100825.12
2018-10-06T00:53:04.508Z,100825.50
2018-10-06T00:55:32.626Z,100824.81
2018-10-06T00:58:00.735Z,100818.42
2018-10-06T01:00:28.828Z,100811.58
2018-10-06T01:02:56.935Z,100808.81
2018-10-06T01:05:25.016Z,100810.90
2018-10-06T01:07:54.268Z,100805.97
2018-10-06T01:10:22.396Z,100804.34
2018-10-06T01:12:50.508Z,100802.03
2018-10-06T01:15:18.647Z,100806.94
2018-10-06T01:17:46.808Z,100805.52
2018-10-06T01:20:14.909Z,100805.44
2018-10-06T01:22:43.034Z,100801.81
2018-10-06T01:25:11.153Z,100802.64
2018-10-06T01:27:39.265Z,100801.59
2018-10-06T01:30:07.400Z,100794.05
2018-10-06T01:32:35.492Z,100797.59
2018-10-06T01:35:03.621Z,100801.13
2018-10-06T01:37:31.740Z,100790.05
2018-10-06T01:39:59.886Z,100784.13
2018-10-06T01:42:27.972Z,100785.41
2018-10-06T01:44:56.088Z,100781.66
2018-10-06T01:47:24.216Z,100782.36
2018-10-06T01:49:52.327Z,100788.20
2018-10-06T01:52:20.420Z,100784.02
2018-10-06T01:54:48.544Z,100780.72
2018-10-06T01:57:16.684Z,100777.80
2018-10-06T01:59:44.764Z,100774.11
2018-10-06T02:02:12.877Z,100781.73
2018-10-06T02:04:40.968Z,100778.73
2018-10-06T02:07:09.102Z,100773.01
2018-10-06T02:09:37.192Z,100773.78
2018-10-06T02:12:05.309Z,100769.06
2018-10-06T02:14:33.437Z,100764.80
2018-10-06T02:17:01.581Z,100754.28
2018-10-06T02:19:29.708Z,100759.34
2018-10-06T02:21:57.808Z,100755.00
2018-10-06T02:24:25.912Z,100753.16
2018-10-06T02:26:54.045Z,100750.47
2018-10-06T02:29:22.176Z,100749.39
2018-10-06T02:31:50.304Z,100747.55
2018-10-06T02:34:18.476Z,100746.32
2018-10-06T02:36:46.636Z,100744.40
2018-10-06T02:39:14.703Z,100734.11
2018-10-06T02:41:42.837Z,100740.09
2018-10-06T02:44:10.940Z,100732.57
2018-10-06T02:46:39.034Z,100725.73
2018-10-06T02:49:07.160Z,100727.27
2018-10-06T02:51:35.302Z,100722.51
2018-10-06T02:54:03.408Z,100718.01
2018-10-06T02:56:31.550Z,100720.53
2018-10-06T02:58:59.653Z,100727.67
2018-10-06T03:01:27.797Z,100714.84
2018-10-06T03:03:55.918Z,100716.27
2018-10-06T03:06:24.016Z,100713.64
2018-10-06T03:08:52.140Z,100704.22
2018-10-06T03:11:20.236Z,100703.98
2018-10-06T03:13:48.375Z,100704.75
2018-10-06T03:16:16.513Z,100705.28
2018-10-06T03:18:44.859Z,100699.99
2018-10-06T03:21:12.960Z,100693.93
2018-10-06T03:23:41.651Z,100698.05
2018-10-06T03:26:09.764Z,100695.62
2018-10-06T03:28:37.854Z,100697.53
2018-10-06T03:31:05.976Z,100688.63
2018-10-06T03:33:34.078Z,100690.16
2018-10-06T03:36:02.192Z,100683.63
2018-10-06T03:38:30.284Z,100691.39
2018-10-06T03:40:58.456Z,100687.69
2018-10-06T03:43:26.561Z,100695.30
2018-10-06T03:45:54.675Z,100690.47
2018-10-06T03:48:22.830Z,100686.02
2018-10-06T03:50:50.969Z,100692.70
2018-10-06T03:53:19.076Z,100687.00
2018-10-06T03:55:47.192Z,100683.94
2018-10-06T03:58:15.318Z,100679.95
2018-10-06T04:00:43.432Z,100679.33
2018-10-06T04:03:11.532Z,100681.00
2018-10-06T04:05:39.668Z,100680.23
2018-10-06T04:08:07.753Z,100688.51
2018-10-06T04:10:35.912Z,100682.05
2018-10-06T04:13:03.996Z,100681.53
2018-10-06T04:15:32.127Z,100668.81
2018-10-06T04:18:00.255Z,100672.02
2018-10-06T04:20:28.396Z,100665.64
2018-10-06T04:22:56.502Z,100669.02
2018-10-06T04:25:24.632Z,100671.23
2018-10-06T04:27:52.755Z,100663.78
2018-10-06T04:30:20.953Z,100659.44
2018-10-06T04:32:49.084Z,100653.81
2018-10-06T04:35:17.193Z,100654.87
2018-10-06T04:37:45.349Z,100657.27
2018-10-06T04:40:13.473Z,100659.23
2018-10-06T04:42:41.564Z,100652.16
2018-10-06T04:45:09.681Z,100651.63
2018-10-06T04:47:37.794Z,100647.85
2018-10-06T04:50:06.064Z,100645.98
2018-10-06T04:52:34.200Z,100657.09
2018-10-06T04:55:02.321Z,100655.66
2018-10-06T04:57:30.437Z,100658.27
2018-10-06T04:59:58.618Z,100658.27
2018-10-06T05:02:27.192Z,100660.57
2018-10-06T05:04:55.324Z,100659.50
2018-10-06T05:07:23.484Z,100665.45
2018-10-06T05:09:51.627Z,100667.07
2018-10-06T05:12:19.755Z,100659.46
2018-10-06T05:14:47.962Z,100664.22
2018-10-06T05:17:16.087Z,100658.80
2018-10-06T05:19:44.216Z,100660.77
2018-10-06T05:22:12.376Z,100657.27
2018-10-06T05:24:40.498Z,100656.03
2018-10-06T05:27:08.668Z,100656.92
2018-10-06T05:29:37.090Z,100654.81
2018-10-06T05:32:05.319Z,100649.45
2018-10-06T05:34:33.524Z,100649.13
2018-10-06T05:37:01.662Z,100647.59
2018-10-06T05:39:29.884Z,100640.54
2018-10-06T05:41:58.020Z,100646.93
2018-10-06T05:44:26.124Z,100642.63
2018-10-06T05:46:55.505Z,100638.33
2018-10-06T05:49:23.784Z,100635.67
2018-10-06T05:51:51.902Z,100637.05
2018-10-06T05:54:20.082Z,100634.74
2018-10-06T05:56:48.232Z,100634.81
2018-10-06T05:59:16.340Z,100629.73
2018-10-06T06:01:44.492Z,100630.20
2018-10-06T06:04:12.604Z,100629.08
2018-10-06T06:06:40.748Z,100635.41
2018-10-06T06:11:43.448Z,100631.91
2018-10-06T06:14:11.763Z,100630.79
2018-10-06T06:16:39.859Z,100629.19
2018-10-06T06:19:08.025Z,100623.09
2018-10-06T06:21:36.148Z,100616.34
2018-10-06T06:24:04.368Z,100611.62
2018-10-06T06:26:32.504Z,100616.45
2018-10-06T06:29:00.637Z,100613.63
2018-10-06T06:31:28.835Z,100617.33
2018-10-06T06:33:56.866Z,100610.48
2018-10-06T06:36:24.964Z,100610.20
2018-10-06T06:38:53.349Z,100612.89
2018-10-06T06:41:28.165Z,100617.73
2018-10-06T06:43:56.478Z,100618.71
2018-10-06T06:46:24.508Z,100614.23
2018-10-06T06:48:52.660Z,100614.27
2018-10-06T06:51:20.744Z,100616.48
2018-10-06T06:53:48.877Z,100622.27
2018-10-06T06:56:17.004Z,100617.20
2018-10-06T06:58:45.141Z,100618.20
2018-10-06T07:01:13.319Z,100618.08
2018-10-06T07:03:41.540Z,100613.97
2018-10-06T07:06:09.670Z,100612.98
2018-10-06T07:08:37.800Z,100609.58
2018-10-06T07:11:06.003Z,100620.15
2018-10-06T07:13:34.145Z,100610.08
2018-10-06T07:16:02.246Z,100610.13
2018-10-06T07:18:30.485Z,100607.72
2018-10-06T07:20:58.573Z,100608.80
2018-10-06T07:23:26.688Z,100607.80
2018-10-06T07:25:54.836Z,100599.91
2018-10-06T07:28:23.059Z,100599.55
2018-10-06T07:30:51.139Z,100600.86
2018-10-06T07:33:19.276Z,100607.78
2018-10-06T07:35:47.412Z,100604.11
2018-10-06T07:38:15.544Z,100603.00
2018-10-06T07:40:43.683Z,100601.69
2018-10-06T07:43:11.836Z,100601.62
2018-10-06T07:45:40.027Z,100600.22
2018-10-06T07:48:08.109Z,100593.66
2018-10-06T07:50:36.204Z,100593.86
2018-10-06T07:53:04.322Z,100590.83
2018-10-06T07:55:32.467Z,100595.30
2018-10-06T07:58:00.591Z,100598.70
2018-10-06T08:00:28.725Z,100603.05
2018-10-06T08:02:56.836Z,100596.72
2018-10-06T08:05:24.964Z,100599.39
2018-10-06T08:07:53.084Z,100597.88
2018-10-06T08:10:27.912Z,100596.02
2018-10-06T08:12:56.193Z,100594.48
2018-10-06T08:15:24.324Z,100590.13
2018-10-06T08:17:52.428Z,100585.52
2018-10-06T08:20:20.548Z,100582.31
2018-10-06T08:22:48.961Z,100576.11
2018-10-06T08:25:17.057Z,100571.19
2018-10-06T08:27:45.165Z,100580.70
2018-10-06T08:30:13.304Z,100581.17
2018-10-06T08:32:41.421Z,100589.34
2018-10-06T08:35:09.604Z,100583.98
2018-10-06T08:37:37.757Z,100578.41
2018-10-06T08:40:05.860Z,100583.04
2018-10-06T08:42:34.015Z,100581.07
2018-10-06T08:45:02.101Z,100577.56
2018-10-06T08:47:30.244Z,100576.92
2018-10-06T08:49:58.361Z,100583.69
2018-10-06T08:52:26.500Z,100576.13
2018-10-06T08:54:54.647Z,100572.21
2018-10-06T08:57:22.760Z,100566.33
2018-10-06T08:59:50.856Z,100568.77
2018-10-06T09:02:18.956Z,100558.70
2018-10-06T09:04:47.076Z,100560.31
2018-10-06T09:07:15.256Z,100557.95
2018-10-06T09:09:43.389Z,100556.34
2018-10-06T09:12:11.515Z,100553.97
2018-10-06T09:14:39.633Z,100548.83
2018-10-06T09:17:07.811Z,100553.06
2018-10-06T09:19:35.942Z,100551.92
2018-10-06T09:22:04.085Z,100549.88
2018-10-06T09:24:32.203Z,100552.28
2018-10-06T09:27:00.341Z,100547.88
2018-10-06T09:29:28.448Z,100551.28
2018-10-06T09:31:56.556Z,100551.03
2018-10-06T09:34:24.661Z,100548.94
2018-10-06T09:36:52.784Z,100551.38
2018-10-06T09:39:20.937Z,100552.22
2018-10-06T09:41:49.080Z,100550.86
2018-10-06T09:44:17.179Z,100543.11
2018-10-06T09:46:45.292Z,100543.63
2018-10-06T09:49:13.409Z,100540.64
2018-10-06T09:51:41.655Z,100541.00
2018-10-06T09:54:09.760Z,100539.98
2018-10-06T09:56:37.881Z,100538.23
2018-10-06T09:59:06.328Z,100541.44
2018-10-06T10:01:39.766Z,100536.53
2018-10-06T10:04:12.287Z,100539.75
2018-10-06T10:06:40.859Z,100536.98
2018-10-06T10:09:10.888Z,100533.19
2018-10-06T10:11:39.192Z,100534.38
2018-10-06T10:14:07.813Z,100534.57
2018-10-06T10:16:35.930Z,100537.59
2018-10-06T10:19:04.421Z,100529.70
2018-10-06T10:21:32.701Z,100539.66
2018-10-06T10:24:00.917Z,100536.95
2018-10-06T10:26:29.060Z,100531.30
2018-10-06T10:28:57.502Z,100534.66
2018-10-06T10:31:25.744Z,100532.36
2018-10-06T10:33:53.909Z,100534.00
2018-10-06T10:36:22.064Z,100529.12
2018-10-06T10:38:50.189Z,100526.82
2018-10-06T10:41:18.287Z,100513.36
2018-10-06T10:43:46.433Z,100513.72
2018-10-06T10:46:14.535Z,100519.96
2018-10-06T10:48:42.646Z,100514.41
2018-10-06T10:51:10.769Z,100512.41
2018-10-06T10:53:39.076Z,100512.40
2018-10-06T10:56:07.176Z,100505.80
2018-10-06T10:58:35.289Z,100504.66
2018-10-06T11:01:03.455Z,100510.23
2018-10-06T11:03:31.554Z,100513.81
2018-10-06T11:05:59.671Z,100508.60
2018-10-06T11:08:27.778Z,100500.75
2018-10-06T11:10:55.909Z,100499.81
2018-10-06T11:13:24.066Z,100500.25
2018-10-06T11:15:52.211Z,100491.97
2018-10-06T11:18:20.322Z,100490.16
2018-10-06T11:20:48.544Z,100486.22
2018-10-06T11:23:16.700Z,100481.39
2018-10-06T11:25:44.825Z,100481.47
2018-10-06T11:28:12.978Z,100478.20
2018-10-06T11:30:41.111Z,100475.55
2018-10-06T11:33:09.209Z,100469.97
2018-10-06T11:35:37.327Z,100462.69
2018-10-06T11:38:05.621Z,100467.52
2018-10-06T11:40:33.684Z,100467.31
2018-10-06T11:43:01.777Z,100457.37
2018-10-06T11:45:29.903Z,100461.99
2018-10-06T11:47:58.032Z,100460.96
2018-10-06T11:50:26.270Z,100466.17
2018-10-06T11:52:54.292Z,100459.09
2018-10-06T11:55:22.424Z,100455.73
2018-10-06T11:57:50.641Z,100455.81
2018-10-06T12:00:18.844Z,100459.16
2018-10-06T12:02:46.884Z,100455.09
2018-10-06T12:05:15.037Z,100451.16
2018-10-06T12:07:43.165Z,100449.19
2018-10-06T12:10:11.272Z,100440.78
2018-10-06T12:12:39.375Z,100443.13
2018-10-06T12:15:07.488Z,100441.67
2018-10-06T12:17:35.618Z,100441.22
2018-10-06T12:20:03.721Z,100443.08
2018-10-06T12:22:31.823Z,100436.47
2018-10-06T12:24:59.993Z,100436.28
2018-10-06T12:27:28.121Z,100431.34
2018-10-06T12:29:56.261Z,100426.41
2018-10-06T12:32:24.467Z,100423.75
2018-10-06T12:34:52.589Z,100414.73
2018-10-06T12:37:20.704Z,100411.84
2018-10-06T12:39:48.877Z,100405.70
2018-10-06T12:42:17.074Z,100411.84
2018-10-06T12:44:45.142Z,100405.12
2018-10-06T12:47:13.269Z,100402.98
2018-10-06T12:49:41.416Z,100405.02
2018-10-06T12:52:09.551Z,100396.71
2018-10-06T12:54:37.666Z,100393.45
2018-10-06T12:57:05.888Z,100387.59
2018-10-06T12:59:33.997Z,100393.31
2018-10-06T13:02:02.138Z,100383.03
2018-10-06T13:04:30.287Z,100387.45
2018-10-06T13:06:58.424Z,100389.52
2018-10-06T13:09:26.545Z,100387.41
2018-10-06T13:11:54.826Z,100388.00
2018-10-06T13:14:22.875Z,100390.53
2018-10-06T13:16:51.016Z,100384.05
2018-10-06T13:19:19.148Z,100375.95
2018-10-06T13:21:47.355Z,100377.09
2018-10-06T13:24:15.452Z,100378.91
2018-10-06T13:26:43.598Z,100376.05
2018-10-06T13:29:12.568Z,100383.58
2018-10-06T13:31:40.703Z,100381.34
2018-10-06T13:34:08.808Z,100379.94
2018-10-06T13:36:36.920Z,100373.67
2018-10-06T13:39:06.871Z,100384.82
2018-10-06T13:41:35.024Z,100375.48
2018-10-06T13:44:03.156Z,100376.41
2018-10-06T13:46:31.273Z,100368.17
2018-10-06T13:48:59.385Z,100368.56
2018-10-06T13:51:27.490Z,100366.91
2018-10-06T13:53:55.931Z,100365.42
2018-10-06T13:56:24.040Z,100369.28
2018-10-06T13:58:52.227Z,100364.12
2018-10-06T14:01:20.341Z,100357.77
2018-10-06T14:03:48.548Z,100358.75
2018-10-06T14:06:16.664Z,100358.09
2018-10-06T14:08:44.765Z,100357.38
2018-10-06T14:11:12.893Z,100357.52
2018-10-06T14:13:41.025Z,100358.40
2018-10-06T14:16:09.288Z,100350.72
2018-10-06T14:18:37.431Z,100347.36
2018-10-06T14:21:05.649Z,100336.59
2018-10-06T14:23:33.755Z,100348.52
2018-10-06T14:26:01.889Z,100347.25
2018-10-06T14:28:29.998Z,100342.46
2018-10-06T14:30:58.150Z,100342.50
2018-10-06T14:33:26.293Z,100335.80
2018-10-06T14:35:54.666Z,100339.16
2018-10-06T14:38:23.405Z,100330.36
2018-10-06T14:40:52.004Z,100333.69
2018-10-06T14:43:20.210Z,100328.23
2018-10-06T14:45:48.535Z,100327.21
2018-10-06T14:48:16.694Z,100322.39
2018-10-06T14:50:44.837Z,100320.54
2018-10-06T14:53:13.107Z,100322.36
2018-10-06T14:55:41.222Z,100319.30
2018-10-06T14:58:09.364Z,100318.34
2018-10-06T15:00:37.496Z,100316.00
2018-10-06T15:03:05.725Z,100317.14
2018-10-06T15:05:33.927Z,100315.27
2018-10-06T15:08:02.104Z,100312.08
2018-10-06T15:10:30.250Z,100304.84
2018-10-06T15:12:58.436Z,100313.42
2018-10-06T15:15:26.571Z,100302.16
2018-10-06T15:17:54.703Z,100299.28
2018-10-06T15:20:22.805Z,100307.61
2018-10-06T15:22:50.980Z,100304.53
2018-10-06T15:25:19.093Z,100306.61
2018-10-06T15:27:47.247Z,100297.97
2018-10-06T15:30:15.377Z,100302.38
2018-10-06T15:32:43.509Z,100299.59
2018-10-06T15:35:11.658Z,100297.20
2018-10-06T15:37:39.873Z,100289.78
2018-10-06T15:40:07.985Z,100292.68
2018-10-06T15:42:36.115Z,100287.95
2018-10-06T15:45:04.833Z,100287.27
2018-10-06T15:47:32.949Z,100283.88
2018-10-06T15:50:01.122Z,100280.15
2018-10-06T15:52:29.220Z,100278.20
2018-10-06T15:54:57.338Z,100282.19
2018-10-06T15:57:25.447Z,100285.91
2018-10-06T15:59:53.549Z,100287.84
2018-10-06T16:02:21.674Z,100281.59
2018-10-06T16:04:49.788Z,100286.64
2018-10-06T16:07:17.953Z,100290.03
2018-10-06T16:09:46.017Z,100291.36
2018-10-06T16:12:14.186Z,100285.56
2018-10-06T16:14:42.254Z,100289.80
2018-10-06T16:17:10.375Z,100291.42
2018-10-06T16:19:38.511Z,100283.95
2018-10-06T16:22:06.756Z,100281.48
2018-10-06T16:24:34.881Z,100282.88
2018-10-06T16:27:03.146Z,100283.05
2018-10-06T16:29:31.232Z,100283.73
2018-10-06T16:31:59.352Z,100284.77
2018-10-06T16:34:27.479Z,100281.39
2018-10-06T16:36:55.628Z,100277.93
2018-10-06T16:39:23.790Z,100278.86
2018-10-06T16:41:51.892Z,100281.08
2018-10-06T16:44:20.021Z,100281.89
2018-10-06T16:46:48.132Z,100280.09
2018-10-06T16:49:16.252Z,100280.36
2018-10-06T16:51:44.432Z,100285.96
2018-10-06T16:54:12.475Z,100288.69
2018-10-06T16:56:40.577Z,100292.98
2018-10-06T16:59:08.685Z,100287.22
2018-10-06T17:01:36.798Z,100292.55
2018-10-06T17:04:04.888Z,100287.89
2018-10-06T17:06:33.001Z,100289.52
2018-10-06T17:09:01.093Z,100288.86
2018-10-06T17:11:29.200Z,100295.14
2018-10-06T17:13:57.401Z,100295.68
2018-10-06T17:16:25.505Z,100287.74
2018-10-06T17:18:53.620Z,100291.23
2018-10-06T17:21:21.720Z,100287.38
2018-10-06T17:23:49.853Z,100282.97
2018-10-06T17:26:17.960Z,100288.16
2018-10-06T17:28:46.093Z,100285.64
2018-10-06T17:31:14.251Z,100292.81
2018-10-06T17:33:42.276Z,100291.02
2018-10-06T17:36:10.372Z,100292.62
2018-10-06T17:38:38.527Z,100288.63
2018-10-06T17:41:06.654Z,100283.41
2018-10-06T17:43:34.796Z,100283.53
2018-10-06T17:46:02.904Z,100283.48
2018-10-06T17:48:31.018Z,100281.33
2018-10-06T17:50:59.225Z,100283.72
2018-10-06T17:53:27.417Z,100286.94
2018-10-06T17:55:55.525Z,100290.69
2018-10-06T17:58:23.727Z,100286.73
2018-10-06T18:00:51.761Z,100286.02
2018-10-06T18:03:19.981Z,100290.22
2018-10-06T18:05:48.096Z,100290.09
2018-10-06T18:08:16.220Z,100287.56
2018-10-06T18:10:44.352Z,100285.05
2018-10-06T18:13:12.457Z,100288.76
2018-10-06T18:15:40.565Z,100288.30
2018-10-06T18:18:08.773Z,100287.41
2018-10-06T18:20:37.130Z,100277.15
2018-10-06T18:23:05.031Z,100278.75
2018-10-06T18:25:34.049Z,100284.36
2018-10-06T18:28:02.173Z,100280.42
2018-10-06T18:30:30.253Z,100285.56
2018-10-06T18:32:58.361Z,100278.79
2018-10-06T18:35:26.468Z,100269.56
2018-10-06T18:37:54.570Z,100281.80
2018-10-06T18:40:22.697Z,100275.58
2018-10-06T18:42:50.872Z,100277.90
2018-10-06T18:45:19.028Z,100275.83
2018-10-06T18:47:47.145Z,100271.98
2018-10-06T18:50:15.260Z,100277.79
2018-10-06T18:52:43.347Z,100279.70
2018-10-06T18:55:11.480Z,100281.02
2018-10-06T18:57:39.627Z,100274.92
2018-10-06T19:00:08.144Z,100268.58
2018-10-06T19:02:36.276Z,100270.38
2018-10-06T19:05:04.375Z,100266.81
2018-10-06T19:07:32.491Z,100268.14
2018-10-06T19:10:00.668Z,100269.69
2018-10-06T19:12:28.698Z,100273.88
2018-10-06T19:14:56.815Z,100271.73
2018-10-06T19:17:24.909Z,100277.11
2018-10-06T19:19:53.033Z,100269.21
2018-10-06T19:22:21.208Z,100265.27
2018-10-06T19:24:55.976Z,100267.45
2018-10-06T19:27:24.135Z,100270.32
2018-10-06T19:29:52.261Z,100263.98
2018-10-06T19:32:20.409Z,100269.23
2018-10-06T19:34:48.527Z,100263.50
2018-10-06T19:37:16.670Z,100265.30
2018-10-06T19:39:44.840Z,100267.45
2018-10-06T19:42:12.927Z,100268.73
2018-10-06T19:44:41.032Z,100262.62
2018-10-06T19:47:09.152Z,100266.58
2018-10-06T19:49:37.261Z,100262.42
2018-10-06T19:52:05.361Z,100266.22
2018-10-06T19:54:33.478Z,100259.67
2018-10-06T19:57:01.780Z,100261.83
2018-10-06T19:59:29.900Z,100259.31
2018-10-06T20:01:58.022Z,100267.69
2018-10-06T20:04:26.146Z,100268.64
2018-10-06T20:06:54.257Z,100262.20
2018-10-06T20:09:22.377Z,100262.56
2018-10-06T20:11:50.488Z,100261.47
2018-10-06T20:14:18.608Z,100261.72
2018-10-06T20:16:46.708Z,100265.19
2018-10-06T20:19:15.064Z,100270.20
2018-10-06T20:21:43.159Z,100270.09
2018-10-06T20:24:11.362Z,100268.20
2018-10-06T20:26:39.480Z,100271.30
2018-10-06T20:29:07.579Z,100271.66
2018-10-06T20:31:35.684Z,100263.41
2018-10-06T20:34:03.788Z,100270.94
2018-10-06T20:36:31.908Z,100266.62
2018-10-06T20:39:00.027Z,100271.16
2018-10-06T20:41:28.125Z,100275.11
2018-10-06T20:43:56.241Z,100281.09
2018-10-06T20:46:24.405Z,100271.89
2018-10-06T20:48:52.466Z,100279.77
2018-10-06T20:51:20.575Z,100280.98
2018-10-06T20:53:48.693Z,100284.66
2018-10-06T20:56:16.800Z,100284.87
2018-10-06T20:58:44.926Z,100292.29
2018-10-06T21:01:13.018Z,100295.44
2018-10-06T21:03:41.144Z,100299.52
2018-10-06T21:06:09.244Z,100302.64
2018-10-06T21:08:37.337Z,100305.61
2018-10-06T21:11:05.489Z,100304.02
2018-10-06T21:13:33.690Z,100310.95
2018-10-06T21:16:01.825Z,100304.76
2018-10-06T21:18:30.311Z,100305.00
2018-10-06T21:20:58.359Z,100305.00
2018-10-06T21:23:26.464Z,100313.59
2018-10-06T21:25:54.595Z,100313.72
2018-10-06T21:28:22.671Z,100313.12
2018-10-06T21:30:50.770Z,100316.36
2018-10-06T21:33:18.905Z,100320.88
2018-10-06T21:35:47.017Z,100321.38
2018-10-06T21:38:15.105Z,100316.83
2018-10-06T21:40:43.187Z,100315.52
2018-10-06T21:43:11.973Z,100312.80
2018-10-06T21:45:40.100Z,100321.88
2018-10-06T21:48:08.216Z,100315.67
2018-10-06T21:50:36.412Z,100307.78
2018-10-06T21:53:04.464Z,100311.27
2018-10-06T21:55:32.749Z,100302.42
2018-10-06T21:58:00.967Z,100301.00
2018-10-06T22:00:29.102Z,100302.19
2018-10-06T22:02:57.211Z,100299.18
2018-10-06T22:05:25.383Z,100290.22
2018-10-06T22:07:53.521Z,100297.03
2018-10-06T22:10:21.644Z,100296.75
2018-10-06T22:12:49.749Z,100293.03
2018-10-06T22:15:18.048Z,100304.27
2018-10-06T22:17:46.445Z,100302.63
2018-10-06T22:20:14.613Z,100308.94
2018-10-06T22:22:42.700Z,100303.58
2018-10-06T22:25:10.846Z,100303.44
2018-10-06T22:27:38.952Z,100300.08
2018-10-06T22:30:07.693Z,100298.91
2018-10-06T22:32:35.830Z,100307.72
2018-10-06T22:35:03.948Z,100310.84
2018-10-06T22:37:32.325Z,100320.07
2018-10-06T22:40:00.406Z,100334.87
2018-10-06T22:42:28.501Z,100324.23
2018-10-06T22:44:56.608Z,100317.67
2018-10-06T22:47:24.932Z,100318.25
2018-10-06T22:49:53.064Z,100326.34
2018-10-06T22:52:21.193Z,100327.40
2018-10-06T22:54:49.318Z,100319.98
2018-10-06T22:57:17.445Z,100317.00
2018-10-06T22:59:45.555Z,100315.91
2018-10-06T23:02:13.795Z,100321.42
2018-10-06T23:04:41.914Z,100321.27
2018-10-06T23:07:10.028Z,100321.05
2018-10-06T23:09:38.124Z,100316.64
2018-10-06T23:12:06.284Z,100317.64
2018-10-06T23:14:34.484Z,100325.89
2018-10-06T23:17:02.588Z,100335.37
2018-10-06T23:19:30.683Z,100332.17
2018-10-06T23:21:58.832Z,100327.16
2018-10-06T23:24:26.947Z,100323.44
2018-10-06T23:26:55.157Z,100315.94
2018-10-06T23:29:23.268Z,100315.61
2018-10-06T23:31:51.408Z,100322.05
2018-10-06T23:34:19.511Z,100331.87
2018-10-06T23:36:47.633Z,100340.23
2018-10-06T23:39:15.771Z,100347.27
2018-10-06T23:41:43.872Z,100347.52
2018-10-06T23:44:12.000Z,100335.34
2018-10-06T23:46:40.113Z,100339.41
2018-10-06T23:49:08.253Z,100362.69
2018-10-06T23:51:36.459Z,100367.58
2018-10-06T23:54:04.602Z,100361.75
2018-10-06T23:56:32.812Z,100372.37
2018-10-06T23:59:00.936Z,100377.84
